MORE METARS?

SEAN

New Member
KIAD 081740Z 081818 VRB03KT P6SM FEW030
FM2300 00000KT P6SM SKC
FM0300 00000KT 5SM BR SCT250
FM0700 00000KT 2SM BR SCT005 SCT150
BECMG 1415 22005KT P6SM NSW BKN100=


NSW=? LAST LINE AT TEH END. ANY IDEAS?
 

stuckingfk

Well-Known Member
SEAN,

I suggest you buy the Aviation Weather Services book put out by the FAA. It has everything you need to know about charts, METARS, TAF's, FA, SD, etc. It is a very helpful book.
 

stuckingfk

Well-Known Member
[ QUOTE ]
WHERE CAN I PICK IT UP?

[/ QUOTE ]

Here

I would suggest getting the combo pack (cheaper) which includes the Aviation Weather Book and the Services one as well. Both have very good information.
 

aloft

New Member
Or, alternatively, just the FAA's NOTAM and Weather Contractions Translator pamphlet and/or Pilots Quick Reference Guide to the METAR/TAF Reports booklet. Small enough to keep in your flight bag, where they'll get used.
 
Top